Time;durP1;ratioP1;P1;durP2;ratioP2;P2;SDS_P1;SDS_P2;PMS_P1;PMS_P2;Temp;Humidity;BMP_temperature;BMP_pressure;BME280_temperature;BME280_humidity;BME280_pressure;Samples;Min_cycle;Max_cycle;Signal;HPM_P1;HPM_P2
2023/09/17 00:02:20;;;;;;;;;;;;;;;19.23;100.00;99986.25;4986342;28;19948;-78
2023/09/17 00:04:45;;;;;;;;;;;;;;;19.26;100.00;99984.25;4984042;28;20370;-80
2023/09/17 00:07:11;;;;;;;;;;;;;;;19.27;100.00;99980.53;4981820;28;20060;-79
2023/09/17 00:09:36;;;;;;;;;;;;;;;19.25;100.00;99987.94;4983502;28;19921;-79
2023/09/17 00:12:02;;;;;;;;;;;;;;;19.27;100.00;99985.88;4988505;28;19922;-79
2023/09/17 00:14:27;;;;;;;;;;;;;;;19.29;100.00;99979.31;4985594;28;19929;-79
2023/09/17 00:16:53;;;;;;;;;;;;;;;19.31;100.00;99979.97;4989627;28;19922;-78
2023/09/17 00:19:19;;;;;;;;;;;;;;;19.33;100.00;99985.13;4987330;28;19932;-79
2023/09/17 00:21:44;;;;;;;;;;;;;;;19.33;100.00;99993.16;4988827;28;19926;-78
2023/09/17 00:24:10;;;;;;;;;;;;;;;19.31;100.00;99981.81;5001076;28;20017;-79
2023/09/17 00:26:35;;;;;;;;;;;;;;;19.30;100.00;99980.16;4989245;28;19961;-79
2023/09/17 00:29:00;;;;;;;;;;;;;;;19.31;100.00;99971.13;4986284;28;19922;-79
2023/09/17 00:31:27;;;;;;;;;;;;;;;19.33;100.00;99979.75;4989115;28;20063;-79
2023/09/17 00:33:52;;;;;;;;;;;;;;;19.34;100.00;99981.44;4988080;28;20017;-78
2023/09/17 00:36:19;;;;;;;;;;;;;;;19.26;100.00;99989.59;4989586;28;19981;-79
2023/09/17 00:38:44;;;;;;;;;;;;;;;19.21;100.00;99987.44;4987719;28;20405;-79
2023/09/17 00:41:09;;;;;;;;;;;;;;;19.19;100.00;99989.50;4995096;28;19945;-79
2023/09/17 00:43:35;;;;;;;;;;;;;;;19.07;100.00;99986.47;4986112;28;19922;-78
2023/09/17 00:46:01;;;;;;;;;;;;;;;19.04;100.00;99984.16;5000046;28;19922;-78
2023/09/17 00:48:27;;;;;;;;;;;;;;;19.07;100.00;99991.84;5001397;28;19972;-78
2023/09/17 00:50:53;;;;;;;;;;;;;;;19.08;100.00;99982.81;4988907;28;20677;-78
2023/09/17 00:53:18;;;;;;;;;;;;;;;19.12;100.00;99978.72;4982911;28;19937;-80
2023/09/17 00:55:43;;;;;;;;;;;;;;;19.16;100.00;99981.84;4987919;28;19926;-79
2023/09/17 00:58:09;;;;;;;;;;;;;;;19.18;100.00;99988.69;4997734;28;19922;-79
2023/09/17 01:00:38;;;;;;;;;;;;;;;19.22;100.00;99989.94;4987037;28;19925;-79
2023/09/17 01:03:04;;;;;;;;;;;;;;;19.26;100.00;99992.25;4983283;28;20382;-79
2023/09/17 01:05:36;;;;;;;;;;;;;;;19.27;100.00;99985.88;4987192;28;19921;-79
2023/09/17 01:08:03;;;;;;;;;;;;;;;19.27;100.00;99985.88;4983663;28;19926;-79
2023/09/17 01:10:29;;;;;;;;;;;;;;;19.28;100.00;99982.19;4987058;28;19932;-80
2023/09/17 01:12:55;;;;;;;;;;;;;;;19.27;100.00;99977.84;4998818;28;19925;-79
2023/09/17 01:15:20;;;;;;;;;;;;;;;19.30;100.00;99974.81;4989139;28;19929;-79
2023/09/17 01:17:45;;;;;;;;;;;;;;;19.28;100.00;99971.47;4986865;28;19928;-80
2023/09/17 01:20:29;;;;;;;;;;;;;;;19.24;100.00;99968.38;4988959;28;20021;-80
2023/09/17 01:22:56;;;;;;;;;;;;;;;19.20;100.00;99962.53;4985120;28;19991;-79
2023/09/17 01:25:29;;;;;;;;;;;;;;;19.20;100.00;99962.53;5000688;28;20013;-80
2023/09/17 01:27:55;;;;;;;;;;;;;;;19.25;100.00;99955.81;4988516;28;19929;-80
2023/09/17 01:30:21;;;;;;;;;;;;;;;19.27;100.00;99969.81;4999940;28;19957;-79
2023/09/17 01:32:47;;;;;;;;;;;;;;;19.26;100.00;99971.69;4987197;28;19972;-79
2023/09/17 01:35:14;;;;;;;;;;;;;;;19.20;100.00;99965.22;4985631;28;19957;-80
2023/09/17 01:37:41;;;;;;;;;;;;;;;19.09;100.00;99972.91;4985283;28;19928;-80
2023/09/17 01:40:10;;;;;;;;;;;;;;;18.89;100.00;99967.31;4981969;28;20008;-80
2023/09/17 01:42:38;;;;;;;;;;;;;;;18.90;100.00;99969.00;4989452;28;19950;-78
2023/09/17 01:45:05;;;;;;;;;;;;;;;18.96;100.00;99962.91;4999838;28;19929;-79
2023/09/17 01:47:32;;;;;;;;;;;;;;;19.02;100.00;99970.19;5000257;28;19976;-80
2023/09/17 01:49:59;;;;;;;;;;;;;;;19.01;100.00;99971.19;4983302;28;20071;-79
2023/09/17 01:52:26;;;;;;;;;;;;;;;19.01;100.00;99962.31;4987612;28;19929;-79
2023/09/17 01:54:52;;;;;;;;;;;;;;;19.01;100.00;99960.47;4983856;28;19976;-80
2023/09/17 01:57:18;;;;;;;;;;;;;;;18.99;100.00;99962.50;4984062;28;20313;-79
2023/09/17 01:59:44;;;;;;;;;;;;;;;18.99;100.00;99957.16;5000030;28;19932;-80
2023/09/17 02:02:09;;;;;;;;;;;;;;;19.00;100.00;99958.00;4988460;28;19922;-79
2023/09/17 02:04:35;;;;;;;;;;;;;;;19.05;100.00;99960.94;4981840;28;20297;-79
2023/09/17 02:07:00;;;;;;;;;;;;;;;19.06;100.00;99960.75;4986623;28;19922;-79
2023/09/17 02:09:25;;;;;;;;;;;;;;;19.06;100.00;99957.25;4985134;28;20005;-79
2023/09/17 02:11:51;;;;;;;;;;;;;;;19.03;100.00;99958.44;4999502;28;19929;-79
2023/09/17 02:14:17;;;;;;;;;;;;;;;19.03;100.00;99952.25;4996645;28;19922;-79
2023/09/17 02:16:42;;;;;;;;;;;;;;;19.06;100.00;99963.41;4999393;28;19973;-80
2023/09/17 02:19:09;;;;;;;;;;;;;;;19.02;100.00;99969.34;4999469;28;19945;-80
2023/09/17 02:21:35;;;;;;;;;;;;;;;19.01;100.00;99963.16;5002278;28;19933;-81
2023/09/17 02:24:00;;;;;;;;;;;;;;;19.02;100.00;99962.16;4989238;28;19926;-81
2023/09/17 02:26:26;;;;;;;;;;;;;;;19.00;100.00;99952.63;4988008;28;19921;-80
2023/09/17 02:28:51;;;;;;;;;;;;;;;19.06;100.00;99968.78;4984739;28;19928;-81
2023/09/17 02:31:17;;;;;;;;;;;;;;;19.06;100.00;99963.41;4987842;28;19928;-80
2023/09/17 02:33:42;;;;;;;;;;;;;;;19.07;100.00;99967.75;4981207;28;19929;-80
2023/09/17 02:36:07;;;;;;;;;;;;;;;19.08;100.00;99966.75;4986789;28;19922;-80
2023/09/17 02:38:33;;;;;;;;;;;;;;;19.09;100.00;99957.69;4987734;28;19933;-80
2023/09/17 02:40:58;;;;;;;;;;;;;;;19.05;100.00;99961.75;4985916;28;19929;-80
2023/09/17 02:43:24;;;;;;;;;;;;;;;19.09;100.00;99957.69;4984478;28;20389;-80
2023/09/17 02:45:53;;;;;;;;;;;;;;;19.09;100.00;99957.69;5003099;28;20016;-80
2023/09/17 02:48:19;;;;;;;;;;;;;;;19.04;100.00;99954.75;4999154;28;19942;-79
2023/09/17 02:50:45;;;;;;;;;;;;;;;19.03;100.00;99946.91;4999625;28;19996;-79
2023/09/17 02:53:10;;;;;;;;;;;;;;;19.06;100.00;99952.72;4978923;28;20449;-79
2023/09/17 02:55:36;;;;;;;;;;;;;;;19.06;100.00;99947.38;4987130;28;19926;-79
2023/09/17 02:58:02;;;;;;;;;;;;;;;19.00;100.00;99944.63;4983931;28;19922;-80
2023/09/17 03:00:34;;;;;;;;;;;;;;;19.00;100.00;99936.59;5002019;28;19922;-80
2023/09/17 03:02:59;;;;;;;;;;;;;;;18.98;100.00;99944.78;4998658;28;19922;-80
2023/09/17 03:05:25;;;;;;;;;;;;;;;19.03;100.00;99947.72;4984128;28;20456;-80
2023/09/17 03:07:53;;;;;;;;;;;;;;;19.04;100.00;99943.22;4980398;28;19922;-80
2023/09/17 03:10:20;;;;;;;;;;;;;;;19.02;100.00;99951.44;4994993;28;20065;-78
2023/09/17 03:12:48;;;;;;;;;;;;;;;19.03;100.00;99942.38;4994580;28;20021;-80
2023/09/17 03:15:14;;;;;;;;;;;;;;;19.05;100.00;99948.38;4985795;28;19926;-80
2023/09/17 03:17:41;;;;;;;;;;;;;;;19.07;100.00;99934.84;4997982;28;19922;-80
2023/09/17 03:20:14;;;;;;;;;;;;;;;19.05;100.00;99935.00;4986478;28;19961;-80
2023/09/17 03:22:43;;;;;;;;;;;;;;;18.97;100.00;99929.75;4996264;28;19925;-80
2023/09/17 03:25:10;;;;;;;;;;;;;;;18.87;100.00;99926.56;4978873;28;19993;-80
2023/09/17 03:27:35;;;;;;;;;;;;;;;18.82;100.00;99939.66;4986424;28;19922;-80
2023/09/17 03:30:05;;;;;;;;;;;;;;;18.71;100.00;99932.13;4983400;28;20382;-80
2023/09/17 03:32:31;;;;;;;;;;;;;;;18.68;100.00;99933.31;4981066;28;19922;-80
2023/09/17 03:34:57;;;;;;;;;;;;;;;18.68;100.00;99938.66;4985535;28;19928;-80
2023/09/17 03:37:22;;;;;;;;;;;;;;;18.70;100.00;99941.16;4984678;28;19926;-79
2023/09/17 03:40:06;;;;;;;;;;;;;;;18.77;100.00;99947.41;4985976;28;19922;-79
2023/09/17 03:42:31;;;;;;;;;;;;;;;18.76;100.00;99948.44;4984486;28;19978;-79
2023/09/17 03:44:56;;;;;;;;;;;;;;;18.77;100.00;99952.75;4998760;28;19957;-80
2023/09/17 03:47:22;;;;;;;;;;;;;;;18.78;100.00;99951.75;4999410;28;19922;-79
2023/09/17 03:49:48;;;;;;;;;;;;;;;18.75;100.00;99946.75;4987363;28;19964;-79
2023/09/17 03:52:14;;;;;;;;;;;;;;;18.71;100.00;99954.34;5002600;28;19969;-78
2023/09/17 03:54:39;;;;;;;;;;;;;;;18.78;100.00;99949.09;4999072;28;19922;-79
2023/09/17 03:57:04;;;;;;;;;;;;;;;18.80;100.00;99947.88;5002167;28;19985;-79
2023/09/17 03:59:31;;;;;;;;;;;;;;;18.83;100.00;99952.03;4991359;28;20008;-79
2023/09/17 04:01:56;;;;;;;;;;;;;;;18.82;100.00;99955.72;4998797;28;20363;-80
2023/09/17 04:04:22;;;;;;;;;;;;;;;18.83;100.00;99952.03;4986075;28;19922;-80
2023/09/17 04:06:47;;;;;;;;;;;;;;;18.85;100.00;99944.63;4987503;28;20621;-79
2023/09/17 04:09:13;;;;;;;;;;;;;;;18.87;100.00;99955.97;5001958;28;20024;-79
2023/09/17 04:11:39;;;;;;;;;;;;;;;18.84;100.00;99953.69;4988218;28;20389;-79
2023/09/17 04:14:06;;;;;;;;;;;;;;;18.85;100.00;99949.97;4987421;28;19926;-79
2023/09/17 04:16:32;;;;;;;;;;;;;;;18.87;100.00;99947.94;4989677;28;20016;-79
2023/09/17 04:18:57;;;;;;;;;;;;;;;18.86;100.00;99956.16;4987019;28;19954;-79
2023/09/17 04:21:22;;;;;;;;;;;;;;;18.79;100.00;99953.41;4989539;28;20390;-79
2023/09/17 04:23:48;;;;;;;;;;;;;;;18.76;100.00;99949.25;4987507;28;20404;-81
2023/09/17 04:26:13;;;;;;;;;;;;;;;18.80;100.00;99952.38;5004567;28;19921;-80
2023/09/17 04:28:38;;;;;;;;;;;;;;;18.81;100.00;99949.53;4998456;28;19929;-80
2023/09/17 04:31:04;;;;;;;;;;;;;;;18.85;100.00;99949.97;5003167;28;20370;-80
2023/09/17 04:33:30;;;;;;;;;;;;;;;18.88;100.00;99965.66;5003069;28;20263;-80
2023/09/17 04:35:56;;;;;;;;;;;;;;;18.89;100.00;99961.16;4999722;28;20009;-79
2023/09/17 04:38:21;;;;;;;;;;;;;;;18.88;100.00;99964.81;4986915;28;19989;-80
2023/09/17 04:40:47;;;;;;;;;;;;;;;18.89;100.00;99963.81;5004763;28;20389;-80
2023/09/17 04:43:12;;;;;;;;;;;;;;;18.88;100.00;99965.66;5001072;28;20279;-79
2023/09/17 04:45:38;;;;;;;;;;;;;;;18.87;100.00;99977.38;5004615;28;20014;-80
2023/09/17 04:48:24;;;;;;;;;;;;;;;18.87;100.00;99972.03;4982292;28;19933;-80
2023/09/17 04:50:50;;;;;;;;;;;;;;;18.85;100.00;99982.06;5002571;28;20009;-80
2023/09/17 04:53:16;;;;;;;;;;;;;;;18.88;100.00;99981.69;4997806;28;19923;-78
2023/09/17 04:55:44;;;;;;;;;;;;;;;18.90;100.00;99985.03;4984437;28;20016;-79
2023/09/17 04:58:09;;;;;;;;;;;;;;;18.91;100.00;99986.66;5000705;28;19969;-80
2023/09/17 05:00:36;;;;;;;;;;;;;;;18.88;100.00;99987.06;5007900;23;19929;-74
2023/09/17 05:03:02;;;;;;;;;;;;;;;18.89;100.00;99993.22;5027159;28;19922;-75
2023/09/17 05:05:28;;;;;;;;;;;;;;;18.80;100.00;100006.69;5024022;28;19921;-73
2023/09/17 05:07:54;;;;;;;;;;;;;;;18.67;100.00;100005.69;5011899;28;20434;-75
2023/09/17 05:10:19;;;;;;;;;;;;;;;18.48;100.00;100000.84;5025421;28;20342;-74
2023/09/17 05:12:44;;;;;;;;;;;;;;;18.53;100.00;99998.44;5025554;28;19971;-75
2023/09/17 05:15:11;;;;;;;;;;;;;;;18.53;100.00;100009.13;5023719;28;19998;-74
2023/09/17 05:17:36;;;;;;;;;;;;;;;18.57;100.00;100005.09;5019814;28;20393;-74
2023/09/17 05:20:06;;;;;;;;;;;;;;;18.59;100.00;100000.41;5023527;28;19929;-75
2023/09/17 05:22:32;;;;;;;;;;;;;;;18.69;100.00;99998.28;5011711;28;20039;-73
2023/09/17 05:24:57;;;;;;;;;;;;;;;18.74;100.00;99995.91;5022175;28;19957;-74
2023/09/17 05:27:24;;;;;;;;;;;;;;;18.79;100.00;99998.88;5024734;28;20526;-75
2023/09/17 05:29:50;;;;;;;;;;;;;;;18.83;100.00;99996.66;5025070;28;19972;-75
2023/09/17 05:32:15;;;;;;;;;;;;;;;18.83;100.00;99994.81;5012763;28;19925;-75
2023/09/17 05:34:42;;;;;;;;;;;;;;;18.82;100.00;100006.50;5026415;28;20402;-74
2023/09/17 05:37:07;;;;;;;;;;;;;;;18.86;100.00;100005.13;5021841;28;20012;-75
2023/09/17 05:39:33;;;;;;;;;;;;;;;18.88;100.00;100003.09;5023436;28;19972;-74
2023/09/17 05:41:59;;;;;;;;;;;;;;;18.91;100.00;100002.72;5011234;28;19964;-75
2023/09/17 05:44:24;;;;;;;;;;;;;;;18.88;100.00;100004.94;5016301;28;19926;-75
2023/09/17 05:46:50;;;;;;;;;;;;;;;18.92;100.00;99999.03;5026460;28;19976;-73
2023/09/17 05:49:15;;;;;;;;;;;;;;;18.92;100.00;99996.34;5011512;28;19928;-75
2023/09/17 05:51:41;;;;;;;;;;;;;;;18.96;100.00;99995.00;5014602;28;19929;-74
2023/09/17 05:54:07;;;;;;;;;;;;;;;18.91;100.00;100005.38;5024762;28;19926;-73
2023/09/17 05:56:32;;;;;;;;;;;;;;;18.91;100.00;100002.72;5022246;28;19929;-75
2023/09/17 05:58:58;;;;;;;;;;;;;;;18.87;100.00;99997.94;5027541;28;20367;-75
2023/09/17 06:01:24;;;;;;;;;;;;;;;18.89;100.00;100001.25;5012001;28;20292;-74
2023/09/17 06:03:49;;;;;;;;;;;;;;;18.89;100.00;99999.41;5031146;28;20746;-75
2023/09/17 06:06:14;;;;;;;;;;;;;;;18.84;100.00;100017.84;5027287;28;20020;-74
2023/09/17 06:08:40;;;;;;;;;;;;;;;18.84;100.00;100012.50;5011563;28;19929;-76
2023/09/17 06:11:06;;;;;;;;;;;;;;;18.98;100.00;100008.97;5022408;28;19922;-74
2023/09/17 06:13:32;;;;;;;;;;;;;;;19.01;100.00;100016.66;5018508;28;20015;-76
2023/09/17 06:15:58;;;;;;;;;;;;;;;18.96;100.00;100013.72;5011873;28;20384;-76
2023/09/17 06:18:23;;;;;;;;;;;;;;;18.91;100.00;100012.59;5011882;28;19932;-75
2023/09/17 06:20:49;;;;;;;;;;;;;;;18.86;100.00;100009.63;5027017;28;20032;-76
2023/09/17 06:23:15;;;;;;;;;;;;;;;18.94;100.00;100015.72;5011585;28;20028;-75
2023/09/17 06:25:41;;;;;;;;;;;;;;;19.06;100.00;100016.09;5023258;28;19937;-75
2023/09/17 06:28:07;;;;;;;;;;;;;;;19.12;100.00;100020.69;5007166;28;20324;-77
2023/09/17 06:30:33;;;;;;;;;;;;;;;19.17;100.00;100023.63;5013434;28;19921;-75
2023/09/17 06:32:58;;;;;;;;;;;;;;;19.12;100.00;100029.56;5022342;28;19953;-76
2023/09/17 06:35:24;;;;;;;;;;;;;;;19.07;100.00;100034.63;5024217;28;20258;-74
2023/09/17 06:37:50;;;;;;;;;;;;;;;19.14;100.00;100040.06;5022767;28;19921;-75
2023/09/17 06:40:17;;;;;;;;;;;;;;;19.15;100.00;100039.88;5002742;28;20373;-75
2023/09/17 06:42:43;;;;;;;;;;;;;;;19.16;100.00;100038.84;5024762;28;19921;-73
2023/09/17 06:45:08;;;;;;;;;;;;;;;19.03;100.00;100049.38;5011139;28;19976;-73
2023/09/17 06:47:34;;;;;;;;;;;;;;;18.96;100.00;100045.81;5011101;28;19976;-75
2023/09/17 06:49:59;;;;;;;;;;;;;;;19.03;100.00;100048.53;5015301;28;19963;-73
2023/09/17 06:52:27;;;;;;;;;;;;;;;19.12;100.00;100052.78;5011323;28;19965;-75
2023/09/17 06:54:52;;;;;;;;;;;;;;;19.23;100.00;100055.81;5011297;28;19921;-75
2023/09/17 06:57:18;;;;;;;;;;;;;;;19.29;100.00;100050.75;5008052;28;19921;-75
2023/09/17 06:59:44;;;;;;;;;;;;;;;19.34;100.00;100056.34;5010983;28;19921;-76
2023/09/17 07:02:09;;;;;;;;;;;;;;;19.40;100.00;100056.44;5010879;28;19921;-75
2023/09/17 07:04:34;;;;;;;;;;;;;;;19.48;100.00;100052.88;5012865;28;19921;-75
2023/09/17 07:07:00;;;;;;;;;;;;;;;19.51;100.00;100047.13;5010799;28;19928;-75
2023/09/17 07:09:29;;;;;;;;;;;;;;;19.54;100.00;100046.75;5011523;28;19921;-75
2023/09/17 07:11:54;;;;;;;;;;;;;;;19.60;100.00;100052.19;5008570;28;20022;-73
2023/09/17 07:14:19;;;;;;;;;;;;;;;19.71;100.00;100058.91;5011005;28;20396;-75
2023/09/17 07:16:44;;;;;;;;;;;;;;;19.75;100.00;100051.31;5010785;28;19953;-75
2023/09/17 07:19:10;;;;;;;;;;;;;;;19.77;100.00;100050.09;5010088;28;19921;-75
2023/09/17 07:21:35;;;;;;;;;;;;;;;19.71;100.00;100050.88;5013803;28;19922;-74
2023/09/17 07:24:00;;;;;;;;;;;;;;;19.71;100.00;100048.19;5021209;28;19921;-75
2023/09/17 07:26:26;;;;;;;;;;;;;;;19.74;100.00;100053.16;5008687;28;19922;-74
2023/09/17 07:28:51;;;;;;;;;;;;;;;19.70;100.00;100051.88;5009738;28;19976;-75
2023/09/17 07:31:16;;;;;;;;;;;;;;;19.76;100.00;100051.13;5022974;28;20411;-75
2023/09/17 07:33:42;;;;;;;;;;;;;;;19.84;100.00;100048.34;5011218;28;19921;-76
2023/09/17 07:36:09;;;;;;;;;;;;;;;19.85;100.00;100055.31;5009137;28;19928;-76
2023/09/17 07:38:35;;;;;;;;;;;;;;;19.89;100.00;100053.94;5010861;28;20020;-77
2023/09/17 07:41:00;;;;;;;;;;;;;;;19.94;100.00;100058.72;5010340;28;20015;-75
2023/09/17 07:43:25;;;;;;;;;;;;;;;19.90;100.00;100063.63;5010582;28;19956;-75
2023/09/17 07:45:51;;;;;;;;;;;;;;;19.99;100.00;100067.00;5010591;28;19921;-77
2023/09/17 07:48:16;;;;;;;;;;;;;;;20.07;100.00;100071.41;5010307;28;19928;-76
2023/09/17 07:50:43;;;;;;;;;;;;;;;20.09;100.00;100069.38;5011080;28;19922;-75
2023/09/17 07:53:09;;;;;;;;;;;;;;;20.17;100.00;100072.75;5008223;28;19921;-75
2023/09/17 07:55:34;;;;;;;;;;;;;;;20.25;100.00;100079.84;5010977;28;19929;-76
2023/09/17 07:57:59;;;;;;;;;;;;;;;20.29;100.00;100083.78;5010185;28;20774;-76
2023/09/17 08:00:25;;;;;;;;;;;;;;;20.33;100.00;100079.72;5008745;28;19968;-78
2023/09/17 08:02:50;;;;;;;;;;;;;;;20.39;100.00;100084.31;5010310;28;19922;-76
2023/09/17 08:05:17;;;;;;;;;;;;;;;20.33;100.00;100074.34;5010325;28;19922;-78
2023/09/17 08:07:42;;;;;;;;;;;;;;;20.39;100.00;100076.28;5014178;28;20407;-78
2023/09/17 08:10:08;;;;;;;;;;;;;;;20.46;100.00;100079.00;5010482;28;19922;-78
2023/09/17 08:12:33;;;;;;;;;;;;;;;20.48;100.00;100072.44;5022487;28;20404;-78
2023/09/17 08:14:58;;;;;;;;;;;;;;;20.58;100.00;100083.66;5021086;28;19921;-79
2023/09/17 08:17:25;;;;;;;;;;;;;;;20.59;100.00;100079.94;5010328;28;20305;-77
2023/09/17 08:19:50;;;;;;;;;;;;;;;20.68;100.00;100100.22;5010389;28;20296;-79
2023/09/17 08:22:15;;;;;;;;;;;;;;;20.69;100.00;100107.25;5011822;28;19922;-78
2023/09/17 08:24:41;;;;;;;;;;;;;;;20.68;100.00;100100.22;5007466;28;19925;-79
2023/09/17 08:27:06;;;;;;;;;;;;;;;20.65;100.00;100111.34;5007313;28;19922;-77
2023/09/17 08:29:33;;;;;;;;;;;;;;;20.67;100.00;100117.38;5005497;28;19921;-79
2023/09/17 08:32:00;;;;;;;;;;;;;;;20.66;100.00;100118.38;5012300;28;19925;-78
2023/09/17 08:34:25;;;;;;;;;;;;;;;20.66;100.00;100117.53;5013842;28;20437;-79
2023/09/17 08:36:51;;;;;;;;;;;;;;;20.68;100.00;100120.84;5012549;28;20001;-77
2023/09/17 08:39:16;;;;;;;;;;;;;;;20.70;100.00;100125.00;5013222;28;19921;-78
2023/09/17 08:41:42;;;;;;;;;;;;;;;20.72;100.00;100127.50;5014415;28;19928;-79
2023/09/17 08:44:08;;;;;;;;;;;;;;;20.75;100.00;100125.25;5013879;28;20378;-78
2023/09/17 08:46:35;;;;;;;;;;;;;;;20.77;100.00;100125.88;5026919;28;19925;-78
2023/09/17 08:49:01;;;;;;;;;;;;;;;20.81;100.00;100120.94;5013054;28;20004;-78
2023/09/17 08:51:28;;;;;;;;;;;;;;;20.81;100.00;100120.94;5015524;28;20436;-78
2023/09/17 08:54:03;;;;;;;;;;;;;;;20.89;100.00;100125.34;5025456;28;19926;-78
2023/09/17 08:56:31;;;;;;;;;;;;;;;20.88;100.00;100131.72;5013842;28;20368;-78
2023/09/17 08:58:58;;;;;;;;;;;;;;;20.67;100.00;100125.41;5012385;28;20408;-78
2023/09/17 09:01:27;;;;;;;;;;;;;;;20.57;100.00;100130.25;5013146;28;19940;-78
2023/09/17 09:03:53;;;;;;;;;;;;;;;20.58;100.00;100129.22;5013251;28;20103;-78
2023/09/17 09:06:20;;;;;;;;;;;;;;;20.60;100.00;100123.69;5013187;28;19921;-80
2023/09/17 09:08:46;;;;;;;;;;;;;;;20.64;100.00;100123.09;5013480;28;19921;-79
2023/09/17 09:11:12;;;;;;;;;;;;;;;20.65;100.00;100116.72;5012134;28;20278;-79
2023/09/17 09:13:38;;;;;;;;;;;;;;;20.69;100.00;100122.50;5013637;28;20016;-79
2023/09/17 09:16:03;;;;;;;;;;;;;;;20.68;100.00;100126.22;5012880;28;19921;-78
2023/09/17 09:18:29;;;;;;;;;;;;;;;20.67;100.00;100124.56;5013018;28;19944;-80
2023/09/17 09:20:55;;;;;;;;;;;;;;;20.69;100.00;100123.34;5015111;28;19987;-79
2023/09/17 09:23:20;;;;;;;;;;;;;;;20.74;100.00;100110.16;5013172;28;19964;-79
2023/09/17 09:25:46;;;;;;;;;;;;;;;20.78;100.00;100107.94;5013224;28;19921;-78
2023/09/17 09:28:11;;;;;;;;;;;;;;;20.78;100.00;100102.59;5009817;28;20017;-78
2023/09/17 09:30:36;;;;;;;;;;;;;;;20.79;100.00;100109.59;5011518;28;19961;-77
2023/09/17 09:33:02;;;;;;;;;;;;;;;20.85;100.00;100106.94;5011288;28;19991;-77
2023/09/17 09:35:27;;;;;;;;;;;;;;;20.90;100.00;100110.91;5014210;28;19952;-77
2023/09/17 09:37:53;;;;;;;;;;;;;;;20.91;100.00;100104.53;5014781;28;19921;-78
2023/09/17 09:40:19;;;;;;;;;;;;;;;20.90;100.00;100105.56;5014373;28;19928;-78
2023/09/17 09:42:46;;;;;;;;;;;;;;;20.91;100.00;100099.97;5012876;28;20008;-78
2023/09/17 09:45:15;;;;;;;;;;;;;;;21.01;100.00;100099.63;5009447;28;19921;-78
2023/09/17 09:47:45;;;;;;;;;;;;;;;21.04;100.00;100104.59;5008063;28;19928;-78
2023/09/17 09:50:19;;;;;;;;;;;;;;;21.12;100.00;100109.81;5008690;28;19921;-77
2023/09/17 09:52:45;;;;;;;;;;;;;;;21.16;100.00;100108.41;5028469;28;19933;-79
2023/09/17 09:55:10;;;;;;;;;;;;;;;21.17;100.00;100104.72;5009960;28;19921;-77
2023/09/17 09:57:37;;;;;;;;;;;;;;;21.08;100.00;100105.88;5012720;28;19922;-76
2023/09/17 10:00:07;;;;;;;;;;;;;;;21.10;100.00;100098.44;5012570;28;19921;-76
2023/09/17 10:02:32;;;;;;;;;;;;;;;21.23;100.00;100098.56;5011802;28;19995;-76
2023/09/17 10:04:57;;;;;;;;;;;;;;;21.32;100.00;100092.00;5011654;28;20343;-79
2023/09/17 10:07:23;;;;;;;;;;;;;;;21.45;100.00;100097.41;5012182;28;19921;-77
2023/09/17 10:09:49;;;;;;;;;;;;;;;21.53;100.00;100099.94;5012342;28;19953;-76
2023/09/17 10:12:14;;;;;;;;;;;;;;;21.52;100.00;100098.28;5012577;28;20763;-76
2023/09/17 10:14:40;;;;;;;;;;;;;;;21.57;100.00;100101.19;5011847;28;19929;-75
2023/09/17 10:17:06;;;;;;;;;;;;;;;21.65;100.00;100108.25;5010515;28;19975;-76
2023/09/17 10:19:34;;;;;;;;;;;;;;;21.54;100.00;100098.09;5012159;28;19921;-76
2023/09/17 10:22:00;;;;;;;;;;;;;;;21.50;100.00;100111.06;5013222;28;19992;-77
2023/09/17 10:24:26;;;;;;;;;;;;;;;21.56;100.00;100107.59;5010804;28;20405;-77
2023/09/17 10:26:52;;;;;;;;;;;;;;;21.60;100.00;100106.19;5011230;28;20019;-77
2023/09/17 10:29:20;;;;;;;;;;;;;;;21.61;100.00;100099.78;5018663;28;20443;-75
2023/09/17 10:31:46;;;;;;;;;;;;;;;21.63;100.00;100100.38;5004145;28;20008;-76
2023/09/17 10:34:14;;;;;;;;;;;;;;;21.62;100.00;100103.25;4999873;28;19971;-77
2023/09/17 10:36:41;;;;;;;;;;;;;;;21.58;100.00;100102.03;5003671;28;19922;-76
2023/09/17 10:39:09;;;;;;;;;;;;;;;21.60;100.00;100089.22;5000680;28;19917;-77
2023/09/17 10:41:36;;;;;;;;;;;;;;;21.64;100.00;100095.84;5018281;28;20068;-77
2023/09/17 10:44:03;;;;;;;;;;;;;;;21.74;100.00;100084.72;5016547;28;19956;-77
2023/09/17 10:46:30;;;;;;;;;;;;;;;21.79;100.00;100082.28;5002659;28;19922;-77
2023/09/17 10:48:57;;;;;;;;;;;;;;;21.90;100.00;100076.31;5002005;28;20420;-76
2023/09/17 10:51:23;;;;;;;;;;;;;;;21.97;100.00;100079.88;5007519;28;20389;-76
2023/09/17 10:53:48;;;;;;;;;;;;;;;22.04;100.00;100080.69;5012816;28;20047;-76
2023/09/17 10:56:14;;;;;;;;;;;;;;;22.11;100.00;100073.47;5011626;28;19948;-76
2023/09/17 10:58:42;;;;;;;;;;;;;;;22.13;100.00;100079.47;5011705;28;19929;-76
2023/09/17 11:01:09;;;;;;;;;;;;;;;22.18;100.00;100074.31;5011236;28;19996;-77
2023/09/17 11:03:37;;;;;;;;;;;;;;;22.19;100.00;100077.84;5011394;28;20385;-76
2023/09/17 11:06:04;;;;;;;;;;;;;;;22.20;100.00;100083.00;5011008;28;19922;-76
2023/09/17 11:08:30;;;;;;;;;;;;;;;22.26;100.00;100075.97;5011471;28;19921;-77
2023/09/17 11:10:55;;;;;;;;;;;;;;;22.30;100.00;100075.34;5011189;28;20270;-76
2023/09/17 11:13:21;;;;;;;;;;;;;;;22.33;100.00;100072.25;5011240;28;20324;-77
2023/09/17 11:15:49;;;;;;;;;;;;;;;22.44;100.00;100071.63;5011419;28;20420;-77
2023/09/17 11:18:17;;;;;;;;;;;;;;;22.53;100.00;100068.72;5010882;28;20028;-77
2023/09/17 11:21:04;;;;;;;;;;;;;;;22.61;100.00;100071.22;5022683;28;20386;-76
2023/09/17 11:23:39;;;;;;;;;;;;;;;22.67;100.00;100067.69;5009878;28;20408;-78
2023/09/17 11:26:04;;;;;;;;;;;;;;;22.75;100.00;100064.81;5009806;28;19968;-76
2023/09/17 11:28:38;;;;;;;;;;;;;;;22.70;100.00;100075.34;5011733;28;20333;-77
2023/09/17 11:31:09;;;;;;;;;;;;;;;22.70;100.00;100076.16;5010799;28;19921;-75
2023/09/17 11:33:35;;;;;;;;;;;;;;;22.71;100.00;100082.38;5011259;28;19929;-75
2023/09/17 11:36:02;;;;;;;;;;;;;;;22.74;100.00;100081.97;5011091;28;19957;-78
2023/09/17 11:38:29;;;;;;;;;;;;;;;22.78;100.00;100083.25;5011117;28;19964;-77
2023/09/17 11:41:07;;;;;;;;;;;;;;;22.74;100.00;100071.22;5011072;28;19925;-76
2023/09/17 11:43:34;;;;;;;;;;;;;;;22.80;100.00;100070.38;5011226;28;19918;-77
2023/09/17 11:46:03;;;;;;;;;;;;;;;22.83;100.00;100067.28;5011357;28;20600;-77
2023/09/17 11:48:30;;;;;;;;;;;;;;;22.85;100.00;100062.53;5010979;28;19922;-78
2023/09/17 11:51:16;;;;;;;;;;;;;;;22.83;100.00;100065.44;5011936;28;20021;-78
2023/09/17 11:53:50;;;;;;;;;;;;;;;22.84;100.00;100060.88;5007084;28;19921;-78
2023/09/17 11:56:15;;;;;;;;;;;;;;;22.83;100.00;100064.59;5007674;28;19925;-78
2023/09/17 11:58:42;;;;;;;;;;;;;;;22.82;100.00;100054.88;5006743;28;19983;-78
2023/09/17 12:01:07;;;;;;;;;;;;;;;22.79;100.00;100047.22;5010425;28;20391;-78
2023/09/17 12:03:33;;;;;;;;;;;;;;;22.69;100.00;100053.00;5009613;28;19926;-78
2023/09/17 12:05:59;;;;;;;;;;;;;;;22.62;100.00;100051.38;5011368;28;20010;-78
2023/09/17 12:08:24;;;;;;;;;;;;;;;22.66;100.00;100047.22;5021863;28;19936;-78
2023/09/17 12:10:53;;;;;;;;;;;;;;;22.79;100.00;100042.69;5006190;28;19980;-77
2023/09/17 12:13:23;;;;;;;;;;;;;;;22.99;100.00;100042.63;5003985;28;19925;-78
2023/09/17 12:15:48;;;;;;;;;;;;;;;23.14;100.00;100045.06;5006303;28;19940;-77
2023/09/17 12:18:14;;;;;;;;;;;;;;;23.21;100.00;100041.28;5003150;28;20032;-77
2023/09/17 12:20:56;;;;;;;;;;;;;;;23.24;100.00;100034.66;5022678;28;20036;-76
2023/09/17 12:23:36;;;;;;;;;;;;;;;23.36;100.00;100045.59;5011961;28;20048;-79
2023/09/17 12:26:03;;;;;;;;;;;;;;;23.31;100.00;100045.41;5014066;28;20281;-77
2023/09/17 12:28:28;;;;;;;;;;;;;;;23.30;100.00;100043.75;5014493;28;20324;-78